sensor_id;sensor_type;location;lat;lon;timestamp;P1;durP1;ratioP1;P2;durP2;ratioP2
8944;SDS011;4507;40.232;29.132;2023-04-25T00:01:47;18.93;;;15.97;;
8944;SDS011;4507;40.232;29.132;2023-04-25T00:04:18;19.63;;;15.77;;
8944;SDS011;4507;40.232;29.132;2023-04-25T00:06:48;18.73;;;14.90;;
8944;SDS011;4507;40.232;29.132;2023-04-25T00:09:19;20.43;;;16.20;;
8944;SDS011;4507;40.232;29.132;2023-04-25T00:11:48;21.30;;;16.10;;
8944;SDS011;4507;40.232;29.132;2023-04-25T00:14:17;22.57;;;15.77;;
8944;SDS011;4507;40.232;29.132;2023-04-25T00:16:47;24.73;;;16.93;;
8944;SDS011;4507;40.232;29.132;2023-04-25T00:19:18;38.83;;;32.87;;
8944;SDS011;4507;40.232;29.132;2023-04-25T00:21:47;55.93;;;47.07;;
8944;SDS011;4507;40.232;29.132;2023-04-25T00:24:16;56.80;;;46.40;;
8944;SDS011;4507;40.232;29.132;2023-04-25T00:26:45;54.20;;;44.17;;
8944;SDS011;4507;40.232;29.132;2023-04-25T00:29:14;55.77;;;48.03;;
8944;SDS011;4507;40.232;29.132;2023-04-25T00:31:44;64.00;;;51.90;;
8944;SDS011;4507;40.232;29.132;2023-04-25T00:34:14;59.50;;;49.83;;
8944;SDS011;4507;40.232;29.132;2023-04-25T00:36:43;57.13;;;50.47;;
8944;SDS011;4507;40.232;29.132;2023-04-25T00:39:12;65.70;;;52.23;;
8944;SDS011;4507;40.232;29.132;2023-04-25T00:41:41;59.07;;;50.57;;
8944;SDS011;4507;40.232;29.132;2023-04-25T00:44:12;63.43;;;51.73;;
8944;SDS011;4507;40.232;29.132;2023-04-25T00:46:43;67.53;;;50.90;;
8944;SDS011;4507;40.232;29.132;2023-04-25T00:49:16;58.47;;;46.83;;
8944;SDS011;4507;40.232;29.132;2023-04-25T00:51:45;53.53;;;43.90;;
8944;SDS011;4507;40.232;29.132;2023-04-25T00:54:14;52.63;;;36.77;;
8944;SDS011;4507;40.232;29.132;2023-04-25T00:56:44;37.80;;;26.97;;
8944;SDS011;4507;40.232;29.132;2023-04-25T00:59:14;31.83;;;24.40;;
8944;SDS011;4507;40.232;29.132;2023-04-25T01:01:43;29.57;;;23.97;;
8944;SDS011;4507;40.232;29.132;2023-04-25T01:04:13;26.40;;;22.00;;
8944;SDS011;4507;40.232;29.132;2023-04-25T01:06:44;28.50;;;21.73;;
8944;SDS011;4507;40.232;29.132;2023-04-25T01:09:14;27.13;;;21.63;;
8944;SDS011;4507;40.232;29.132;2023-04-25T01:11:43;24.73;;;21.70;;
8944;SDS011;4507;40.232;29.132;2023-04-25T01:14:13;26.93;;;20.70;;
8944;SDS011;4507;40.232;29.132;2023-04-25T01:16:42;30.00;;;20.00;;
8944;SDS011;4507;40.232;29.132;2023-04-25T01:19:11;22.03;;;17.87;;
8944;SDS011;4507;40.232;29.132;2023-04-25T01:21:48;23.57;;;17.57;;
8944;SDS011;4507;40.232;29.132;2023-04-25T01:24:17;19.47;;;17.30;;
8944;SDS011;4507;40.232;29.132;2023-04-25T01:26:47;22.27;;;16.03;;
8944;SDS011;4507;40.232;29.132;2023-04-25T01:29:22;20.07;;;15.23;;
8944;SDS011;4507;40.232;29.132;2023-04-25T01:31:52;18.23;;;14.03;;
8944;SDS011;4507;40.232;29.132;2023-04-25T01:34:21;17.67;;;15.40;;
8944;SDS011;4507;40.232;29.132;2023-04-25T01:36:52;17.13;;;15.33;;
8944;SDS011;4507;40.232;29.132;2023-04-25T01:39:22;17.80;;;15.83;;
8944;SDS011;4507;40.232;29.132;2023-04-25T01:41:52;20.23;;;15.97;;
8944;SDS011;4507;40.232;29.132;2023-04-25T01:44:23;17.10;;;14.97;;
8944;SDS011;4507;40.232;29.132;2023-04-25T01:46:53;20.47;;;15.43;;
8944;SDS011;4507;40.232;29.132;2023-04-25T01:49:22;22.23;;;14.33;;
8944;SDS011;4507;40.232;29.132;2023-04-25T01:51:52;15.57;;;13.90;;
8944;SDS011;4507;40.232;29.132;2023-04-25T01:54:22;21.37;;;14.43;;
8944;SDS011;4507;40.232;29.132;2023-04-25T01:56:51;16.43;;;13.67;;
8944;SDS011;4507;40.232;29.132;2023-04-25T01:59:21;23.30;;;13.83;;
8944;SDS011;4507;40.232;29.132;2023-04-25T02:02:05;28.83;;;14.40;;
8944;SDS011;4507;40.232;29.132;2023-04-25T02:04:35;16.63;;;14.23;;
8944;SDS011;4507;40.232;29.132;2023-04-25T02:07:06;17.30;;;13.90;;
8944;SDS011;4507;40.232;29.132;2023-04-25T02:09:47;14.87;;;13.37;;
8944;SDS011;4507;40.232;29.132;2023-04-25T02:12:18;16.70;;;13.77;;
8944;SDS011;4507;40.232;29.132;2023-04-25T02:15:09;16.60;;;14.63;;
8944;SDS011;4507;40.232;29.132;2023-04-25T02:17:59;17.57;;;14.73;;
8944;SDS011;4507;40.232;29.132;2023-04-25T02:20:36;18.90;;;15.50;;
8944;SDS011;4507;40.232;29.132;2023-04-25T02:23:07;17.87;;;16.00;;
8944;SDS011;4507;40.232;29.132;2023-04-25T02:25:36;24.93;;;16.23;;
8944;SDS011;4507;40.232;29.132;2023-04-25T02:28:06;17.83;;;15.67;;
8944;SDS011;4507;40.232;29.132;2023-04-25T02:30:35;19.47;;;16.07;;
8944;SDS011;4507;40.232;29.132;2023-04-25T02:33:04;20.47;;;16.10;;
8944;SDS011;4507;40.232;29.132;2023-04-25T02:35:35;27.93;;;17.27;;
8944;SDS011;4507;40.232;29.132;2023-04-25T02:38:04;28.77;;;16.10;;
8944;SDS011;4507;40.232;29.132;2023-04-25T02:40:34;23.17;;;16.30;;
8944;SDS011;4507;40.232;29.132;2023-04-25T02:43:03;19.60;;;16.40;;
8944;SDS011;4507;40.232;29.132;2023-04-25T02:45:32;37.33;;;17.70;;
8944;SDS011;4507;40.232;29.132;2023-04-25T02:48:02;24.00;;;16.63;;
8944;SDS011;4507;40.232;29.132;2023-04-25T02:50:31;28.27;;;18.00;;
8944;SDS011;4507;40.232;29.132;2023-04-25T02:53:00;42.07;;;19.63;;
8944;SDS011;4507;40.232;29.132;2023-04-25T02:55:37;54.67;;;19.67;;
8944;SDS011;4507;40.232;29.132;2023-04-25T02:58:06;37.47;;;19.70;;
8944;SDS011;4507;40.232;29.132;2023-04-25T03:00:42;27.10;;;18.03;;
8944;SDS011;4507;40.232;29.132;2023-04-25T03:03:12;32.70;;;17.97;;
8944;SDS011;4507;40.232;29.132;2023-04-25T03:05:44;33.13;;;19.07;;
8944;SDS011;4507;40.232;29.132;2023-04-25T03:08:16;46.03;;;21.43;;
8944;SDS011;4507;40.232;29.132;2023-04-25T03:10:47;39.23;;;19.00;;
8944;SDS011;4507;40.232;29.132;2023-04-25T03:13:18;43.37;;;19.97;;
8944;SDS011;4507;40.232;29.132;2023-04-25T03:15:47;38.53;;;19.40;;
8944;SDS011;4507;40.232;29.132;2023-04-25T03:18:18;34.30;;;19.20;;
8944;SDS011;4507;40.232;29.132;2023-04-25T03:20:54;34.83;;;18.93;;
8944;SDS011;4507;40.232;29.132;2023-04-25T03:23:23;33.73;;;17.80;;
8944;SDS011;4507;40.232;29.132;2023-04-25T03:25:56;24.47;;;17.70;;
8944;SDS011;4507;40.232;29.132;2023-04-25T03:28:25;39.53;;;18.30;;
8944;SDS011;4507;40.232;29.132;2023-04-25T03:30:55;30.40;;;17.63;;
8944;SDS011;4507;40.232;29.132;2023-04-25T03:33:25;33.00;;;17.83;;
8944;SDS011;4507;40.232;29.132;2023-04-25T03:35:56;34.47;;;17.60;;
8944;SDS011;4507;40.232;29.132;2023-04-25T03:38:28;36.90;;;16.70;;
8944;SDS011;4507;40.232;29.132;2023-04-25T03:41:18;48.93;;;17.97;;
8944;SDS011;4507;40.232;29.132;2023-04-25T03:43:53;36.50;;;16.93;;
8944;SDS011;4507;40.232;29.132;2023-04-25T03:46:22;56.37;;;29.93;;
8944;SDS011;4507;40.232;29.132;2023-04-25T03:48:51;225.60;;;155.97;;
8944;SDS011;4507;40.232;29.132;2023-04-25T03:51:27;119.33;;;88.83;;
8944;SDS011;4507;40.232;29.132;2023-04-25T03:54:15;72.97;;;48.73;;
8944;SDS011;4507;40.232;29.132;2023-04-25T03:57:00;50.00;;;36.90;;
8944;SDS011;4507;40.232;29.132;2023-04-25T03:59:33;27.90;;;19.20;;
8944;SDS011;4507;40.232;29.132;2023-04-25T04:02:09;49.23;;;18.77;;
8944;SDS011;4507;40.232;29.132;2023-04-25T04:04:39;42.33;;;17.10;;
8944;SDS011;4507;40.232;29.132;2023-04-25T04:07:12;43.20;;;17.37;;
8944;SDS011;4507;40.232;29.132;2023-04-25T04:09:44;54.27;;;16.33;;
8944;SDS011;4507;40.232;29.132;2023-04-25T04:12:22;38.70;;;16.20;;
8944;SDS011;4507;40.232;29.132;2023-04-25T04:14:52;27.83;;;14.73;;
8944;SDS011;4507;40.232;29.132;2023-04-25T04:17:21;17.30;;;12.93;;
8944;SDS011;4507;40.232;29.132;2023-04-25T04:19:51;21.27;;;13.60;;
8944;SDS011;4507;40.232;29.132;2023-04-25T04:22:23;27.17;;;13.60;;
8944;SDS011;4507;40.232;29.132;2023-04-25T04:24:56;17.73;;;12.83;;
8944;SDS011;4507;40.232;29.132;2023-04-25T04:27:56;31.63;;;14.13;;
8944;SDS011;4507;40.232;29.132;2023-04-25T04:30:43;23.47;;;14.07;;
8944;SDS011;4507;40.232;29.132;2023-04-25T04:33:12;26.50;;;14.40;;
8944;SDS011;4507;40.232;29.132;2023-04-25T04:35:45;27.33;;;15.40;;
8944;SDS011;4507;40.232;29.132;2023-04-25T04:38:17;18.00;;;13.33;;
8944;SDS011;4507;40.232;29.132;2023-04-25T04:41:05;26.83;;;13.60;;
8944;SDS011;4507;40.232;29.132;2023-04-25T04:43:48;41.67;;;14.70;;
8944;SDS011;4507;40.232;29.132;2023-04-25T04:46:43;29.47;;;14.10;;
8944;SDS011;4507;40.232;29.132;2023-04-25T04:49:31;48.40;;;15.07;;
8944;SDS011;4507;40.232;29.132;2023-04-25T04:52:19;73.63;;;18.57;;
8944;SDS011;4507;40.232;29.132;2023-04-25T04:55:01;34.97;;;15.37;;
8944;SDS011;4507;40.232;29.132;2023-04-25T04:57:43;58.93;;;16.43;;
8944;SDS011;4507;40.232;29.132;2023-04-25T05:00:40;30.63;;;13.77;;
8944;SDS011;4507;40.232;29.132;2023-04-25T05:03:24;38.23;;;14.27;;
8944;SDS011;4507;40.232;29.132;2023-04-25T05:06:14;45.97;;;14.60;;
8944;SDS011;4507;40.232;29.132;2023-04-25T05:09:06;31.60;;;15.40;;
8944;SDS011;4507;40.232;29.132;2023-04-25T05:11:54;37.10;;;13.47;;
8944;SDS011;4507;40.232;29.132;2023-04-25T05:14:38;35.27;;;12.80;;
8944;SDS011;4507;40.232;29.132;2023-04-25T05:17:43;50.67;;;13.40;;
8944;SDS011;4507;40.232;29.132;2023-04-25T05:20:31;30.00;;;12.00;;
8944;SDS011;4507;40.232;29.132;2023-04-25T05:23:32;21.33;;;12.57;;
8944;SDS011;4507;40.232;29.132;2023-04-25T05:26:15;35.43;;;13.20;;
8944;SDS011;4507;40.232;29.132;2023-04-25T05:29:05;37.80;;;15.53;;
8944;SDS011;4507;40.232;29.132;2023-04-25T05:31:52;74.33;;;16.93;;
8944;SDS011;4507;40.232;29.132;2023-04-25T05:34:24;64.47;;;16.20;;
8944;SDS011;4507;40.232;29.132;2023-04-25T05:37:00;41.23;;;15.50;;
8944;SDS011;4507;40.232;29.132;2023-04-25T05:39:31;45.33;;;14.80;;
8944;SDS011;4507;40.232;29.132;2023-04-25T05:42:07;109.40;;;19.73;;
8944;SDS011;4507;40.232;29.132;2023-04-25T05:44:49;57.20;;;16.50;;
8944;SDS011;4507;40.232;29.132;2023-04-25T05:47:36;40.87;;;18.30;;
8944;SDS011;4507;40.232;29.132;2023-04-25T05:50:12;39.37;;;17.23;;
8944;SDS011;4507;40.232;29.132;2023-04-25T05:52:48;46.30;;;17.53;;
8944;SDS011;4507;40.232;29.132;2023-04-25T05:55:44;57.43;;;20.10;;
8944;SDS011;4507;40.232;29.132;2023-04-25T05:58:21;47.33;;;17.70;;
8944;SDS011;4507;40.232;29.132;2023-04-25T06:00:51;52.43;;;19.37;;
8944;SDS011;4507;40.232;29.132;2023-04-25T06:03:20;44.67;;;21.23;;
8944;SDS011;4507;40.232;29.132;2023-04-25T06:05:51;43.00;;;21.27;;
8944;SDS011;4507;40.232;29.132;2023-04-25T06:08:21;37.30;;;17.13;;
8944;SDS011;4507;40.232;29.132;2023-04-25T06:10:50;47.93;;;19.93;;
8944;SDS011;4507;40.232;29.132;2023-04-25T06:13:19;40.10;;;17.87;;
8944;SDS011;4507;40.232;29.132;2023-04-25T06:15:48;46.07;;;16.43;;
8944;SDS011;4507;40.232;29.132;2023-04-25T06:18:17;43.23;;;14.33;;
8944;SDS011;4507;40.232;29.132;2023-04-25T06:20:46;42.70;;;16.20;;
8944;SDS011;4507;40.232;29.132;2023-04-25T06:23:21;43.57;;;16.07;;
8944;SDS011;4507;40.232;29.132;2023-04-25T06:26:06;38.80;;;15.63;;
8944;SDS011;4507;40.232;29.132;2023-04-25T06:28:38;24.80;;;14.00;;
8944;SDS011;4507;40.232;29.132;2023-04-25T06:31:11;59.47;;;17.80;;
8944;SDS011;4507;40.232;29.132;2023-04-25T06:33:43;59.67;;;18.40;;
8944;SDS011;4507;40.232;29.132;2023-04-25T06:36:12;49.23;;;16.10;;
8944;SDS011;4507;40.232;29.132;2023-04-25T06:38:45;67.07;;;17.03;;
8944;SDS011;4507;40.232;29.132;2023-04-25T06:41:14;39.77;;;14.13;;
8944;SDS011;4507;40.232;29.132;2023-04-25T06:43:44;66.27;;;16.53;;
8944;SDS011;4507;40.232;29.132;2023-04-25T06:46:36;47.87;;;14.97;;
8944;SDS011;4507;40.232;29.132;2023-04-25T06:49:06;63.47;;;17.30;;
8944;SDS011;4507;40.232;29.132;2023-04-25T06:51:35;35.20;;;12.57;;
8944;SDS011;4507;40.232;29.132;2023-04-25T06:54:06;36.03;;;12.23;;
8944;SDS011;4507;40.232;29.132;2023-04-25T06:56:43;26.97;;;10.83;;
8944;SDS011;4507;40.232;29.132;2023-04-25T06:59:31;47.63;;;13.20;;
8944;SDS011;4507;40.232;29.132;2023-04-25T07:02:01;70.13;;;15.10;;
8944;SDS011;4507;40.232;29.132;2023-04-25T07:04:31;38.23;;;13.80;;
8944;SDS011;4507;40.232;29.132;2023-04-25T07:07:01;40.73;;;15.23;;
8944;SDS011;4507;40.232;29.132;2023-04-25T07:09:42;29.63;;;14.80;;
8944;SDS011;4507;40.232;29.132;2023-04-25T07:12:11;57.80;;;17.10;;
8944;SDS011;4507;40.232;29.132;2023-04-25T07:14:40;41.50;;;12.23;;
8944;SDS011;4507;40.232;29.132;2023-04-25T07:17:10;41.83;;;13.47;;
8944;SDS011;4507;40.232;29.132;2023-04-25T07:19:39;33.47;;;11.57;;
8944;SDS011;4507;40.232;29.132;2023-04-25T07:22:09;67.07;;;13.53;;
8944;SDS011;4507;40.232;29.132;2023-04-25T07:24:42;34.17;;;11.60;;
8944;SDS011;4507;40.232;29.132;2023-04-25T07:27:15;43.07;;;17.60;;
8944;SDS011;4507;40.232;29.132;2023-04-25T07:30:11;50.93;;;13.33;;
8944;SDS011;4507;40.232;29.132;2023-04-25T07:32:40;39.30;;;13.10;;
8944;SDS011;4507;40.232;29.132;2023-04-25T07:35:09;22.90;;;11.77;;
8944;SDS011;4507;40.232;29.132;2023-04-25T07:37:40;49.33;;;13.30;;
8944;SDS011;4507;40.232;29.132;2023-04-25T07:40:16;43.43;;;11.93;;
8944;SDS011;4507;40.232;29.132;2023-04-25T07:42:53;28.93;;;10.50;;
8944;SDS011;4507;40.232;29.132;2023-04-25T07:45:38;47.17;;;12.40;;
8944;SDS011;4507;40.232;29.132;2023-04-25T07:48:26;52.17;;;14.73;;
8944;SDS011;4507;40.232;29.132;2023-04-25T07:50:55;47.70;;;13.57;;
8944;SDS011;4507;40.232;29.132;2023-04-25T07:53:25;22.77;;;10.03;;
8944;SDS011;4507;40.232;29.132;2023-04-25T07:56:01;39.50;;;13.87;;
8944;SDS011;4507;40.232;29.132;2023-04-25T07:58:34;33.50;;;13.37;;
8944;SDS011;4507;40.232;29.132;2023-04-25T08:01:05;61.30;;;15.10;;
8944;SDS011;4507;40.232;29.132;2023-04-25T08:03:45;25.43;;;11.70;;
8944;SDS011;4507;40.232;29.132;2023-04-25T08:06:22;26.47;;;11.57;;
8944;SDS011;4507;40.232;29.132;2023-04-25T08:09:01;32.53;;;10.80;;
8944;SDS011;4507;40.232;29.132;2023-04-25T08:11:38;37.80;;;9.93;;
8944;SDS011;4507;40.232;29.132;2023-04-25T08:14:11;83.30;;;14.53;;
8944;SDS011;4507;40.232;29.132;2023-04-25T08:16:42;23.07;;;9.50;;
8944;SDS011;4507;40.232;29.132;2023-04-25T08:19:13;18.63;;;9.23;;
8944;SDS011;4507;40.232;29.132;2023-04-25T08:21:43;21.77;;;9.03;;
8944;SDS011;4507;40.232;29.132;2023-04-25T08:24:18;24.87;;;8.90;;
8944;SDS011;4507;40.232;29.132;2023-04-25T08:26:48;27.80;;;8.73;;
8944;SDS011;4507;40.232;29.132;2023-04-25T08:29:20;39.03;;;19.27;;
8944;SDS011;4507;40.232;29.132;2023-04-25T08:31:52;62.63;;;21.83;;
8944;SDS011;4507;40.232;29.132;2023-04-25T08:34:39;18.73;;;9.80;;
8944;SDS011;4507;40.232;29.132;2023-04-25T08:37:10;27.07;;;17.40;;
8944;SDS011;4507;40.232;29.132;2023-04-25T08:39:46;27.00;;;18.10;;
8944;SDS011;4507;40.232;29.132;2023-04-25T08:42:37;39.87;;;18.73;;
8944;SDS011;4507;40.232;29.132;2023-04-25T08:45:09;59.57;;;21.73;;
8944;SDS011;4507;40.232;29.132;2023-04-25T08:47:41;29.83;;;15.33;;
8944;SDS011;4507;40.232;29.132;2023-04-25T08:50:13;15.27;;;10.77;;
8944;SDS011;4507;40.232;29.132;2023-04-25T08:52:46;15.60;;;10.03;;
8944;SDS011;4507;40.232;29.132;2023-04-25T08:55:19;18.70;;;7.83;;
8944;SDS011;4507;40.232;29.132;2023-04-25T08:58:09;29.73;;;9.23;;
8944;SDS011;4507;40.232;29.132;2023-04-25T09:00:39;32.27;;;10.20;;
8944;SDS011;4507;40.232;29.132;2023-04-25T09:03:09;26.17;;;9.57;;
8944;SDS011;4507;40.232;29.132;2023-04-25T09:05:40;17.20;;;9.20;;
8944;SDS011;4507;40.232;29.132;2023-04-25T09:08:14;15.87;;;9.50;;
8944;SDS011;4507;40.232;29.132;2023-04-25T09:10:44;23.37;;;9.37;;
8944;SDS011;4507;40.232;29.132;2023-04-25T09:13:33;23.17;;;9.67;;
8944;SDS011;4507;40.232;29.132;2023-04-25T09:16:20;26.53;;;10.80;;
8944;SDS011;4507;40.232;29.132;2023-04-25T09:19:20;21.50;;;10.93;;
8944;SDS011;4507;40.232;29.132;2023-04-25T09:22:14;26.90;;;11.13;;
8944;SDS011;4507;40.232;29.132;2023-04-25T09:25:10;29.60;;;7.43;;
8944;SDS011;4507;40.232;29.132;2023-04-25T09:27:53;26.60;;;8.93;;
8944;SDS011;4507;40.232;29.132;2023-04-25T09:30:32;29.37;;;6.90;;
8944;SDS011;4507;40.232;29.132;2023-04-25T09:33:18;22.17;;;8.30;;
8944;SDS011;4507;40.232;29.132;2023-04-25T09:35:49;14.40;;;5.53;;
8944;SDS011;4507;40.232;29.132;2023-04-25T09:38:43;11.07;;;4.77;;
8944;SDS011;4507;40.232;29.132;2023-04-25T09:41:31;19.83;;;7.47;;
8944;SDS011;4507;40.232;29.132;2023-04-25T09:44:05;10.23;;;6.50;;
8944;SDS011;4507;40.232;29.132;2023-04-25T09:46:37;13.63;;;7.33;;
8944;SDS011;4507;40.232;29.132;2023-04-25T09:49:17;13.90;;;4.63;;
8944;SDS011;4507;40.232;29.132;2023-04-25T09:52:04;18.57;;;3.93;;
8944;SDS011;4507;40.232;29.132;2023-04-25T09:54:42;37.07;;;5.00;;
8944;SDS011;4507;40.232;29.132;2023-04-25T09:57:15;25.20;;;4.47;;
8944;SDS011;4507;40.232;29.132;2023-04-25T09:59:47;31.37;;;6.17;;
8944;SDS011;4507;40.232;29.132;2023-04-25T10:02:20;34.93;;;5.80;;
8944;SDS011;4507;40.232;29.132;2023-04-25T10:04:56;10.03;;;3.80;;
8944;SDS011;4507;40.232;29.132;2023-04-25T10:07:32;11.20;;;3.93;;
8944;SDS011;4507;40.232;29.132;2023-04-25T10:10:09;12.40;;;4.10;;
8944;SDS011;4507;40.232;29.132;2023-04-25T10:12:41;23.77;;;5.10;;
8944;SDS011;4507;40.232;29.132;2023-04-25T10:15:12;39.83;;;6.07;;
8944;SDS011;4507;40.232;29.132;2023-04-25T10:17:44;48.73;;;6.77;;
8944;SDS011;4507;40.232;29.132;2023-04-25T10:20:14;49.97;;;7.10;;
8944;SDS011;4507;40.232;29.132;2023-04-25T10:22:45;20.33;;;4.43;;
8944;SDS011;4507;40.232;29.132;2023-04-25T10:25:15;22.97;;;5.63;;
8944;SDS011;4507;40.232;29.132;2023-04-25T10:27:45;19.33;;;4.93;;
8944;SDS011;4507;40.232;29.132;2023-04-25T10:30:14;19.67;;;5.50;;
8944;SDS011;4507;40.232;29.132;2023-04-25T10:32:45;39.17;;;5.90;;
8944;SDS011;4507;40.232;29.132;2023-04-25T10:35:18;16.30;;;5.27;;
8944;SDS011;4507;40.232;29.132;2023-04-25T10:37:56;31.40;;;5.93;;
8944;SDS011;4507;40.232;29.132;2023-04-25T10:40:26;22.53;;;5.03;;
8944;SDS011;4507;40.232;29.132;2023-04-25T10:42:55;26.93;;;5.20;;
8944;SDS011;4507;40.232;29.132;2023-04-25T10:45:51;27.53;;;7.03;;
8944;SDS011;4507;40.232;29.132;2023-04-25T10:48:28;27.97;;;6.90;;
8944;SDS011;4507;40.232;29.132;2023-04-25T10:51:06;31.13;;;6.87;;
8944;SDS011;4507;40.232;29.132;2023-04-25T10:53:36;25.37;;;7.83;;
8944;SDS011;4507;40.232;29.132;2023-04-25T10:56:09;16.77;;;8.10;;
8944;SDS011;4507;40.232;29.132;2023-04-25T10:58:43;53.63;;;35.90;;
8944;SDS011;4507;40.232;29.132;2023-04-25T11:01:19;16.87;;;11.00;;
8944;SDS011;4507;40.232;29.132;2023-04-25T11:03:56;15.83;;;9.03;;
8944;SDS011;4507;40.232;29.132;2023-04-25T11:06:29;21.47;;;11.87;;
8944;SDS011;4507;40.232;29.132;2023-04-25T11:09:08;29.23;;;14.97;;
8944;SDS011;4507;40.232;29.132;2023-04-25T11:11:40;15.97;;;10.07;;
8944;SDS011;4507;40.232;29.132;2023-04-25T11:14:10;14.17;;;7.90;;
8944;SDS011;4507;40.232;29.132;2023-04-25T11:16:39;13.57;;;7.33;;
8944;SDS011;4507;40.232;29.132;2023-04-25T11:19:09;13.37;;;7.13;;
8944;SDS011;4507;40.232;29.132;2023-04-25T11:21:38;13.33;;;7.43;;
8944;SDS011;4507;40.232;29.132;2023-04-25T11:24:07;18.00;;;10.00;;
8944;SDS011;4507;40.232;29.132;2023-04-25T11:26:37;11.10;;;6.53;;
8944;SDS011;4507;40.232;29.132;2023-04-25T11:29:06;20.40;;;7.40;;
8944;SDS011;4507;40.232;29.132;2023-04-25T11:31:35;12.37;;;8.00;;
8944;SDS011;4507;40.232;29.132;2023-04-25T11:34:04;32.07;;;8.83;;
8944;SDS011;4507;40.232;29.132;2023-04-25T11:36:34;17.37;;;7.20;;
8944;SDS011;4507;40.232;29.132;2023-04-25T11:39:06;13.33;;;6.13;;
8944;SDS011;4507;40.232;29.132;2023-04-25T11:41:36;10.70;;;5.33;;
8944;SDS011;4507;40.232;29.132;2023-04-25T11:44:07;16.57;;;4.70;;
8944;SDS011;4507;40.232;29.132;2023-04-25T11:46:36;101.57;;;11.83;;
8944;SDS011;4507;40.232;29.132;2023-04-25T11:49:06;59.70;;;7.37;;
8944;SDS011;4507;40.232;29.132;2023-04-25T11:51:39;44.43;;;7.47;;
8944;SDS011;4507;40.232;29.132;2023-04-25T11:54:09;85.47;;;10.30;;
8944;SDS011;4507;40.232;29.132;2023-04-25T11:56:40;69.50;;;9.53;;
8944;SDS011;4507;40.232;29.132;2023-04-25T11:59:10;31.03;;;6.60;;
8944;SDS011;4507;40.232;29.132;2023-04-25T12:01:40;26.50;;;5.60;;
8944;SDS011;4507;40.232;29.132;2023-04-25T12:04:16;42.40;;;7.07;;
8944;SDS011;4507;40.232;29.132;2023-04-25T12:06:49;69.03;;;8.03;;
8944;SDS011;4507;40.232;29.132;2023-04-25T12:09:20;37.90;;;6.50;;
8944;SDS011;4507;40.232;29.132;2023-04-25T12:11:57;56.10;;;9.00;;
8944;SDS011;4507;40.232;29.132;2023-04-25T12:14:30;27.03;;;5.63;;
8944;SDS011;4507;40.232;29.132;2023-04-25T12:17:01;18.60;;;4.73;;
8944;SDS011;4507;40.232;29.132;2023-04-25T12:19:35;58.77;;;8.17;;
8944;SDS011;4507;40.232;29.132;2023-04-25T12:22:19;54.90;;;8.10;;
8944;SDS011;4507;40.232;29.132;2023-04-25T12:24:50;147.90;;;16.03;;
8944;SDS011;4507;40.232;29.132;2023-04-25T12:27:21;40.30;;;7.23;;
8944;SDS011;4507;40.232;29.132;2023-04-25T12:29:50;102.13;;;11.13;;
8944;SDS011;4507;40.232;29.132;2023-04-25T12:32:21;45.23;;;6.83;;
8944;SDS011;4507;40.232;29.132;2023-04-25T12:34:50;25.60;;;5.93;;
8944;SDS011;4507;40.232;29.132;2023-04-25T12:37:20;15.07;;;4.90;;
8944;SDS011;4507;40.232;29.132;2023-04-25T12:39:50;12.47;;;5.03;;
8944;SDS011;4507;40.232;29.132;2023-04-25T12:42:19;57.67;;;8.03;;
8944;SDS011;4507;40.232;29.132;2023-04-25T12:44:48;75.33;;;9.23;;
8944;SDS011;4507;40.232;29.132;2023-04-25T12:47:17;36.57;;;7.03;;
8944;SDS011;4507;40.232;29.132;2023-04-25T12:49:46;46.67;;;7.67;;
8944;SDS011;4507;40.232;29.132;2023-04-25T12:52:15;95.60;;;13.17;;
8944;SDS011;4507;40.232;29.132;2023-04-25T12:54:46;59.70;;;39.50;;
8944;SDS011;4507;40.232;29.132;2023-04-25T12:57:15;30.17;;;8.27;;
8944;SDS011;4507;40.232;29.132;2023-04-25T12:59:44;18.53;;;7.03;;
8944;SDS011;4507;40.232;29.132;2023-04-25T13:02:13;16.77;;;7.30;;
8944;SDS011;4507;40.232;29.132;2023-04-25T13:04:42;13.30;;;5.50;;
8944;SDS011;4507;40.232;29.132;2023-04-25T13:07:12;10.37;;;5.63;;
8944;SDS011;4507;40.232;29.132;2023-04-25T13:09:42;11.60;;;6.50;;
8944;SDS011;4507;40.232;29.132;2023-04-25T13:12:14;13.50;;;5.63;;
8944;SDS011;4507;40.232;29.132;2023-04-25T13:14:43;7.40;;;4.77;;
8944;SDS011;4507;40.232;29.132;2023-04-25T13:17:13;20.60;;;5.50;;
8944;SDS011;4507;40.232;29.132;2023-04-25T13:19:42;19.13;;;5.60;;
8944;SDS011;4507;40.232;29.132;2023-04-25T13:22:11;17.97;;;5.63;;
8944;SDS011;4507;40.232;29.132;2023-04-25T13:24:42;12.50;;;5.07;;
8944;SDS011;4507;40.232;29.132;2023-04-25T13:27:31;15.37;;;5.60;;
8944;SDS011;4507;40.232;29.132;2023-04-25T13:30:01;16.70;;;6.20;;
8944;SDS011;4507;40.232;29.132;2023-04-25T13:32:34;16.87;;;7.07;;
8944;SDS011;4507;40.232;29.132;2023-04-25T13:35:05;13.50;;;6.27;;
8944;SDS011;4507;40.232;29.132;2023-04-25T13:37:55;9.63;;;6.53;;
8944;SDS011;4507;40.232;29.132;2023-04-25T13:40:24;35.00;;;8.03;;
8944;SDS011;4507;40.232;29.132;2023-04-25T13:42:55;18.17;;;6.80;;
8944;SDS011;4507;40.232;29.132;2023-04-25T13:45:24;15.77;;;5.90;;
8944;SDS011;4507;40.232;29.132;2023-04-25T13:47:57;25.17;;;6.80;;
8944;SDS011;4507;40.232;29.132;2023-04-25T13:50:27;17.67;;;5.97;;
8944;SDS011;4507;40.232;29.132;2023-04-25T13:53:00;21.10;;;6.40;;
8944;SDS011;4507;40.232;29.132;2023-04-25T13:55:29;47.73;;;9.17;;
8944;SDS011;4507;40.232;29.132;2023-04-25T13:57:59;25.97;;;7.77;;
8944;SDS011;4507;40.232;29.132;2023-04-25T14:00:35;16.93;;;6.63;;
8944;SDS011;4507;40.232;29.132;2023-04-25T14:03:06;25.67;;;6.97;;
8944;SDS011;4507;40.232;29.132;2023-04-25T14:05:36;15.07;;;6.23;;
8944;SDS011;4507;40.232;29.132;2023-04-25T14:08:06;16.20;;;6.60;;
8944;SDS011;4507;40.232;29.132;2023-04-25T14:10:36;40.17;;;9.00;;
8944;SDS011;4507;40.232;29.132;2023-04-25T14:13:06;26.83;;;8.63;;
8944;SDS011;4507;40.232;29.132;2023-04-25T14:15:36;25.47;;;8.67;;
8944;SDS011;4507;40.232;29.132;2023-04-25T14:18:06;30.73;;;10.53;;
8944;SDS011;4507;40.232;29.132;2023-04-25T14:20:35;31.97;;;10.23;;
8944;SDS011;4507;40.232;29.132;2023-04-25T14:23:04;29.67;;;13.10;;
8944;SDS011;4507;40.232;29.132;2023-04-25T14:25:33;25.43;;;10.87;;
8944;SDS011;4507;40.232;29.132;2023-04-25T14:28:03;24.77;;;11.53;;
8944;SDS011;4507;40.232;29.132;2023-04-25T14:30:34;25.27;;;14.17;;
8944;SDS011;4507;40.232;29.132;2023-04-25T14:33:04;34.33;;;15.20;;
8944;SDS011;4507;40.232;29.132;2023-04-25T14:35:33;26.73;;;15.17;;
8944;SDS011;4507;40.232;29.132;2023-04-25T14:38:04;29.70;;;18.50;;
8944;SDS011;4507;40.232;29.132;2023-04-25T14:40:34;28.17;;;17.27;;
8944;SDS011;4507;40.232;29.132;2023-04-25T14:43:04;63.93;;;57.13;;
8944;SDS011;4507;40.232;29.132;2023-04-25T14:45:34;31.27;;;20.43;;
8944;SDS011;4507;40.232;29.132;2023-04-25T14:48:04;20.37;;;12.53;;
8944;SDS011;4507;40.232;29.132;2023-04-25T14:50:33;16.03;;;9.27;;
8944;SDS011;4507;40.232;29.132;2023-04-25T14:53:02;15.70;;;9.70;;
8944;SDS011;4507;40.232;29.132;2023-04-25T14:55:32;15.43;;;7.80;;
8944;SDS011;4507;40.232;29.132;2023-04-25T14:58:01;11.77;;;6.90;;
8944;SDS011;4507;40.232;29.132;2023-04-25T15:00:30;16.20;;;9.00;;
8944;SDS011;4507;40.232;29.132;2023-04-25T15:03:01;17.17;;;8.83;;
8944;SDS011;4507;40.232;29.132;2023-04-25T15:05:31;46.13;;;25.30;;
8944;SDS011;4507;40.232;29.132;2023-04-25T15:08:01;39.87;;;23.53;;
8944;SDS011;4507;40.232;29.132;2023-04-25T15:10:30;28.03;;;14.07;;
8944;SDS011;4507;40.232;29.132;2023-04-25T15:12:59;43.60;;;25.93;;
8944;SDS011;4507;40.232;29.132;2023-04-25T15:15:29;81.37;;;54.93;;
8944;SDS011;4507;40.232;29.132;2023-04-25T15:17:58;24.23;;;16.90;;